Stubbekobing, Denmark
Current Conditions -  °F | °C
As of 7:50 AM on Friday 28 Nov 2014 (Local Time) from EKAV Reporting Station
Scattered Clouds Scattered Clouds  
Wind Chill: 32°   Ceiling: Unl
Heat Index: 43°   Visibility: 6mi
Dew Point: 36°   Wind: 33mph
Humidity: 76%   Direction: 120°ESE
Pressure: 30.24"   Gusts: NA
Location:  54.89°N, 12.04°E
Report Text: EKAV 280650Z AUTO 12029KT 9999NDV SCT019/// 06/02 Q1024
Loading
Personal Weather Stations






























Interactive Weather Map New forecast layout! Learn more

10-Day Weather Forecast

Advertisements
Track Severe Weather on mobile